sensor_id;sensor_type;location;lat;lon;timestamp;P1;durP1;ratioP1;P2;durP2;ratioP2
19800;SDS011;10060;48.274;12.214;2024-02-28T00:02:26;33.50;;;18.23;;
19800;SDS011;10060;48.274;12.214;2024-02-28T00:05:30;31.70;;;18.30;;
19800;SDS011;10060;48.274;12.214;2024-02-28T00:08:32;34.50;;;18.47;;
19800;SDS011;10060;48.274;12.214;2024-02-28T00:11:36;31.77;;;18.73;;
19800;SDS011;10060;48.274;12.214;2024-02-28T00:14:38;33.30;;;17.43;;
19800;SDS011;10060;48.274;12.214;2024-02-28T00:20:50;30.70;;;17.13;;
19800;SDS011;10060;48.274;12.214;2024-02-28T00:23:54;31.87;;;18.53;;
19800;SDS011;10060;48.274;12.214;2024-02-28T00:26:57;31.43;;;18.17;;
19800;SDS011;10060;48.274;12.214;2024-02-28T00:29:59;32.27;;;18.10;;
19800;SDS011;10060;48.274;12.214;2024-02-28T00:33:02;31.37;;;17.80;;
19800;SDS011;10060;48.274;12.214;2024-02-28T00:36:04;30.90;;;17.13;;
19800;SDS011;10060;48.274;12.214;2024-02-28T00:39:06;33.47;;;19.03;;
19800;SDS011;10060;48.274;12.214;2024-02-28T00:42:09;32.77;;;18.03;;
19800;SDS011;10060;48.274;12.214;2024-02-28T00:45:11;31.17;;;19.00;;
19800;SDS011;10060;48.274;12.214;2024-02-28T00:48:13;38.83;;;19.97;;
19800;SDS011;10060;48.274;12.214;2024-02-28T00:51:16;34.17;;;19.30;;
19800;SDS011;10060;48.274;12.214;2024-02-28T00:54:18;30.67;;;18.97;;
19800;SDS011;10060;48.274;12.214;2024-02-28T00:57:23;36.10;;;20.70;;
19800;SDS011;10060;48.274;12.214;2024-02-28T01:00:25;35.07;;;20.43;;
19800;SDS011;10060;48.274;12.214;2024-02-28T01:03:27;40.03;;;20.77;;
19800;SDS011;10060;48.274;12.214;2024-02-28T01:06:29;40.40;;;20.47;;
19800;SDS011;10060;48.274;12.214;2024-02-28T01:09:31;37.00;;;20.53;;
19800;SDS011;10060;48.274;12.214;2024-02-28T01:12:34;39.17;;;20.47;;
19800;SDS011;10060;48.274;12.214;2024-02-28T01:15:36;36.03;;;20.13;;
19800;SDS011;10060;48.274;12.214;2024-02-28T01:18:38;33.40;;;20.07;;
19800;SDS011;10060;48.274;12.214;2024-02-28T01:21:41;35.63;;;21.57;;
19800;SDS011;10060;48.274;12.214;2024-02-28T01:24:43;36.40;;;21.37;;
19800;SDS011;10060;48.274;12.214;2024-02-28T01:27:46;35.00;;;20.47;;
19800;SDS011;10060;48.274;12.214;2024-02-28T01:30:48;36.10;;;19.33;;
19800;SDS011;10060;48.274;12.214;2024-02-28T01:33:50;34.97;;;18.17;;
19800;SDS011;10060;48.274;12.214;2024-02-28T01:36:52;31.87;;;18.40;;
19800;SDS011;10060;48.274;12.214;2024-02-28T01:39:54;32.53;;;18.87;;
19800;SDS011;10060;48.274;12.214;2024-02-28T01:43:03;34.23;;;18.57;;
19800;SDS011;10060;48.274;12.214;2024-02-28T01:46:07;34.07;;;19.87;;
19800;SDS011;10060;48.274;12.214;2024-02-28T01:49:14;35.03;;;19.70;;
19800;SDS011;10060;48.274;12.214;2024-02-28T01:52:17;32.87;;;18.57;;
19800;SDS011;10060;48.274;12.214;2024-02-28T01:55:19;35.80;;;19.30;;
19800;SDS011;10060;48.274;12.214;2024-02-28T01:58:23;32.80;;;19.80;;
19800;SDS011;10060;48.274;12.214;2024-02-28T02:01:25;35.23;;;19.63;;
19800;SDS011;10060;48.274;12.214;2024-02-28T02:04:28;33.77;;;19.43;;
19800;SDS011;10060;48.274;12.214;2024-02-28T02:07:30;31.20;;;18.73;;
19800;SDS011;10060;48.274;12.214;2024-02-28T02:10:33;33.77;;;19.27;;
19800;SDS011;10060;48.274;12.214;2024-02-28T02:13:36;33.47;;;19.47;;
19800;SDS011;10060;48.274;12.214;2024-02-28T02:16:48;35.73;;;20.63;;
19800;SDS011;10060;48.274;12.214;2024-02-28T02:19:50;41.63;;;20.80;;
19800;SDS011;10060;48.274;12.214;2024-02-28T02:22:54;36.87;;;19.37;;
19800;SDS011;10060;48.274;12.214;2024-02-28T02:25:56;35.10;;;19.57;;
19800;SDS011;10060;48.274;12.214;2024-02-28T02:28:58;36.43;;;20.30;;
19800;SDS011;10060;48.274;12.214;2024-02-28T02:32:00;36.40;;;20.47;;
19800;SDS011;10060;48.274;12.214;2024-02-28T02:35:02;40.73;;;21.10;;
19800;SDS011;10060;48.274;12.214;2024-02-28T02:38:06;33.50;;;19.43;;
19800;SDS011;10060;48.274;12.214;2024-02-28T02:41:08;36.27;;;21.17;;
19800;SDS011;10060;48.274;12.214;2024-02-28T02:44:10;40.90;;;21.70;;
19800;SDS011;10060;48.274;12.214;2024-02-28T02:47:12;41.07;;;21.50;;
19800;SDS011;10060;48.274;12.214;2024-02-28T02:50:14;40.13;;;20.17;;
19800;SDS011;10060;48.274;12.214;2024-02-28T02:53:18;35.87;;;20.17;;
19800;SDS011;10060;48.274;12.214;2024-02-28T02:56:21;37.73;;;22.00;;
19800;SDS011;10060;48.274;12.214;2024-02-28T02:59:23;39.77;;;22.83;;
19800;SDS011;10060;48.274;12.214;2024-02-28T03:02:25;38.77;;;22.30;;
19800;SDS011;10060;48.274;12.214;2024-02-28T03:05:27;38.73;;;21.47;;
19800;SDS011;10060;48.274;12.214;2024-02-28T03:08:30;37.17;;;21.80;;
19800;SDS011;10060;48.274;12.214;2024-02-28T03:11:33;37.23;;;20.23;;
19800;SDS011;10060;48.274;12.214;2024-02-28T03:14:35;35.93;;;21.77;;
19800;SDS011;10060;48.274;12.214;2024-02-28T03:17:37;40.30;;;21.93;;
19800;SDS011;10060;48.274;12.214;2024-02-28T03:20:39;36.90;;;21.47;;
19800;SDS011;10060;48.274;12.214;2024-02-28T03:23:43;40.40;;;21.47;;
19800;SDS011;10060;48.274;12.214;2024-02-28T03:26:45;38.13;;;21.40;;
19800;SDS011;10060;48.274;12.214;2024-02-28T03:29:47;40.10;;;22.07;;
19800;SDS011;10060;48.274;12.214;2024-02-28T03:32:49;42.93;;;22.37;;
19800;SDS011;10060;48.274;12.214;2024-02-28T03:35:51;35.63;;;21.00;;
19800;SDS011;10060;48.274;12.214;2024-02-28T03:38:54;40.60;;;22.73;;
19800;SDS011;10060;48.274;12.214;2024-02-28T03:41:56;42.90;;;24.13;;
19800;SDS011;10060;48.274;12.214;2024-02-28T03:44:58;45.13;;;24.97;;
19800;SDS011;10060;48.274;12.214;2024-02-28T03:48:01;45.97;;;24.87;;
19800;SDS011;10060;48.274;12.214;2024-02-28T03:51:03;49.00;;;25.23;;
19800;SDS011;10060;48.274;12.214;2024-02-28T03:54:06;49.73;;;25.23;;
19800;SDS011;10060;48.274;12.214;2024-02-28T03:57:09;45.53;;;24.83;;
19800;SDS011;10060;48.274;12.214;2024-02-28T04:00:11;50.30;;;25.97;;
19800;SDS011;10060;48.274;12.214;2024-02-28T04:03:14;50.53;;;25.23;;
19800;SDS011;10060;48.274;12.214;2024-02-28T04:06:16;47.47;;;26.13;;
19800;SDS011;10060;48.274;12.214;2024-02-28T04:09:20;49.00;;;26.03;;
19800;SDS011;10060;48.274;12.214;2024-02-28T04:12:22;47.27;;;25.00;;
19800;SDS011;10060;48.274;12.214;2024-02-28T04:15:24;48.53;;;25.93;;
19800;SDS011;10060;48.274;12.214;2024-02-28T04:18:26;50.10;;;26.10;;
19800;SDS011;10060;48.274;12.214;2024-02-28T04:21:28;48.67;;;26.53;;
19800;SDS011;10060;48.274;12.214;2024-02-28T04:24:32;47.90;;;24.20;;
19800;SDS011;10060;48.274;12.214;2024-02-28T04:27:34;44.40;;;25.77;;
19800;SDS011;10060;48.274;12.214;2024-02-28T04:30:36;48.00;;;26.00;;
19800;SDS011;10060;48.274;12.214;2024-02-28T04:33:38;53.10;;;26.27;;
19800;SDS011;10060;48.274;12.214;2024-02-28T04:36:40;48.00;;;26.33;;
19800;SDS011;10060;48.274;12.214;2024-02-28T04:39:43;53.00;;;27.23;;
19800;SDS011;10060;48.274;12.214;2024-02-28T04:42:45;48.33;;;26.10;;
19800;SDS011;10060;48.274;12.214;2024-02-28T04:45:47;54.00;;;27.13;;
19800;SDS011;10060;48.274;12.214;2024-02-28T04:48:50;51.47;;;27.90;;
19800;SDS011;10060;48.274;12.214;2024-02-28T04:51:52;51.27;;;26.40;;
19800;SDS011;10060;48.274;12.214;2024-02-28T04:54:55;52.33;;;26.83;;
19800;SDS011;10060;48.274;12.214;2024-02-28T04:57:57;56.23;;;27.37;;
19800;SDS011;10060;48.274;12.214;2024-02-28T05:00:59;53.47;;;28.10;;
19800;SDS011;10060;48.274;12.214;2024-02-28T05:04:01;52.53;;;26.80;;
19800;SDS011;10060;48.274;12.214;2024-02-28T05:07:04;52.83;;;27.40;;
19800;SDS011;10060;48.274;12.214;2024-02-28T05:10:09;61.33;;;28.40;;
19800;SDS011;10060;48.274;12.214;2024-02-28T05:13:11;52.07;;;27.00;;
19800;SDS011;10060;48.274;12.214;2024-02-28T05:16:13;56.43;;;29.00;;
19800;SDS011;10060;48.274;12.214;2024-02-28T05:19:15;60.07;;;31.10;;
19800;SDS011;10060;48.274;12.214;2024-02-28T05:22:18;53.00;;;28.67;;
19800;SDS011;10060;48.274;12.214;2024-02-28T05:25:22;56.23;;;29.23;;
19800;SDS011;10060;48.274;12.214;2024-02-28T05:28:24;52.73;;;27.17;;
19800;SDS011;10060;48.274;12.214;2024-02-28T05:31:26;52.87;;;26.50;;
19800;SDS011;10060;48.274;12.214;2024-02-28T05:34:29;56.43;;;29.00;;
19800;SDS011;10060;48.274;12.214;2024-02-28T05:37:31;61.53;;;28.27;;
19800;SDS011;10060;48.274;12.214;2024-02-28T05:40:36;62.57;;;28.97;;
19800;SDS011;10060;48.274;12.214;2024-02-28T05:43:38;54.43;;;27.30;;
19800;SDS011;10060;48.274;12.214;2024-02-28T05:46:40;61.10;;;28.90;;
19800;SDS011;10060;48.274;12.214;2024-02-28T05:49:42;60.80;;;28.60;;
19800;SDS011;10060;48.274;12.214;2024-02-28T05:52:44;60.23;;;28.90;;
19800;SDS011;10060;48.274;12.214;2024-02-28T05:55:47;62.97;;;29.87;;
19800;SDS011;10060;48.274;12.214;2024-02-28T05:58:49;60.10;;;28.43;;
19800;SDS011;10060;48.274;12.214;2024-02-28T06:01:51;64.93;;;29.03;;
19800;SDS011;10060;48.274;12.214;2024-02-28T06:04:54;59.43;;;28.63;;
19800;SDS011;10060;48.274;12.214;2024-02-28T06:07:56;54.93;;;28.47;;
19800;SDS011;10060;48.274;12.214;2024-02-28T06:11:00;57.13;;;27.67;;
19800;SDS011;10060;48.274;12.214;2024-02-28T06:14:02;55.47;;;29.13;;
19800;SDS011;10060;48.274;12.214;2024-02-28T06:17:04;58.70;;;30.07;;
19800;SDS011;10060;48.274;12.214;2024-02-28T06:20:07;60.70;;;28.87;;
19800;SDS011;10060;48.274;12.214;2024-02-28T06:23:09;60.03;;;28.73;;
19800;SDS011;10060;48.274;12.214;2024-02-28T06:26:12;64.03;;;29.17;;
19800;SDS011;10060;48.274;12.214;2024-02-28T06:29:16;61.67;;;29.77;;
19800;SDS011;10060;48.274;12.214;2024-02-28T06:32:20;61.93;;;29.27;;
19800;SDS011;10060;48.274;12.214;2024-02-28T06:35:25;60.73;;;28.47;;
19800;SDS011;10060;48.274;12.214;2024-02-28T06:38:27;63.30;;;29.73;;
19800;SDS011;10060;48.274;12.214;2024-02-28T06:41:30;59.43;;;28.83;;
19800;SDS011;10060;48.274;12.214;2024-02-28T06:44:33;59.77;;;29.43;;
19800;SDS011;10060;48.274;12.214;2024-02-28T06:47:35;64.57;;;30.37;;
19800;SDS011;10060;48.274;12.214;2024-02-28T06:50:37;65.80;;;30.80;;
19800;SDS011;10060;48.274;12.214;2024-02-28T06:53:39;69.80;;;32.00;;
19800;SDS011;10060;48.274;12.214;2024-02-28T06:56:43;69.70;;;32.83;;
19800;SDS011;10060;48.274;12.214;2024-02-28T06:59:45;67.90;;;30.97;;
19800;SDS011;10060;48.274;12.214;2024-02-28T07:02:48;66.67;;;31.50;;
19800;SDS011;10060;48.274;12.214;2024-02-28T07:05:50;65.70;;;30.17;;
19800;SDS011;10060;48.274;12.214;2024-02-28T07:08:53;69.77;;;30.53;;
19800;SDS011;10060;48.274;12.214;2024-02-28T07:11:56;64.90;;;30.83;;
19800;SDS011;10060;48.274;12.214;2024-02-28T07:14:58;69.00;;;31.97;;
19800;SDS011;10060;48.274;12.214;2024-02-28T07:18:00;62.80;;;30.20;;
19800;SDS011;10060;48.274;12.214;2024-02-28T07:21:03;63.87;;;30.23;;
19800;SDS011;10060;48.274;12.214;2024-02-28T07:24:06;59.80;;;29.73;;
19800;SDS011;10060;48.274;12.214;2024-02-28T07:27:10;69.57;;;30.13;;
19800;SDS011;10060;48.274;12.214;2024-02-28T07:30:12;62.67;;;30.53;;
19800;SDS011;10060;48.274;12.214;2024-02-28T07:33:14;64.70;;;30.20;;
19800;SDS011;10060;48.274;12.214;2024-02-28T07:36:16;58.40;;;28.73;;
19800;SDS011;10060;48.274;12.214;2024-02-28T07:39:18;60.77;;;30.40;;
19800;SDS011;10060;48.274;12.214;2024-02-28T07:42:22;65.17;;;30.57;;
19800;SDS011;10060;48.274;12.214;2024-02-28T07:45:24;59.97;;;31.27;;
19800;SDS011;10060;48.274;12.214;2024-02-28T07:48:26;60.87;;;29.97;;
19800;SDS011;10060;48.274;12.214;2024-02-28T07:51:28;71.00;;;31.20;;
19800;SDS011;10060;48.274;12.214;2024-02-28T07:54:30;59.43;;;28.57;;
19800;SDS011;10060;48.274;12.214;2024-02-28T07:57:34;66.47;;;29.73;;
19800;SDS011;10060;48.274;12.214;2024-02-28T08:00:36;65.90;;;31.50;;
19800;SDS011;10060;48.274;12.214;2024-02-28T08:03:38;63.57;;;29.80;;
19800;SDS011;10060;48.274;12.214;2024-02-28T08:06:40;67.30;;;30.83;;
19800;SDS011;10060;48.274;12.214;2024-02-28T08:09:43;67.37;;;29.50;;
19800;SDS011;10060;48.274;12.214;2024-02-28T08:12:46;60.23;;;29.73;;
19800;SDS011;10060;48.274;12.214;2024-02-28T08:15:48;61.83;;;29.83;;
19800;SDS011;10060;48.274;12.214;2024-02-28T08:18:51;70.47;;;33.00;;
19800;SDS011;10060;48.274;12.214;2024-02-28T08:21:53;67.37;;;32.40;;
19800;SDS011;10060;48.274;12.214;2024-02-28T08:24:55;72.03;;;32.40;;
19800;SDS011;10060;48.274;12.214;2024-02-28T08:27:58;62.50;;;30.10;;
19800;SDS011;10060;48.274;12.214;2024-02-28T08:31:00;68.27;;;32.97;;
19800;SDS011;10060;48.274;12.214;2024-02-28T08:34:02;73.63;;;32.20;;
19800;SDS011;10060;48.274;12.214;2024-02-28T08:37:05;69.60;;;31.43;;
19800;SDS011;10060;48.274;12.214;2024-02-28T08:40:07;64.13;;;31.37;;
19800;SDS011;10060;48.274;12.214;2024-02-28T08:43:10;67.47;;;30.83;;
19800;SDS011;10060;48.274;12.214;2024-02-28T08:46:13;64.30;;;31.27;;
19800;SDS011;10060;48.274;12.214;2024-02-28T08:49:16;62.57;;;30.40;;
19800;SDS011;10060;48.274;12.214;2024-02-28T08:52:18;68.77;;;31.40;;
19800;SDS011;10060;48.274;12.214;2024-02-28T08:55:20;62.47;;;30.53;;
19800;SDS011;10060;48.274;12.214;2024-02-28T08:58:23;62.07;;;30.93;;
19800;SDS011;10060;48.274;12.214;2024-02-28T09:01:25;67.87;;;32.00;;
19800;SDS011;10060;48.274;12.214;2024-02-28T09:04:27;62.80;;;30.37;;
19800;SDS011;10060;48.274;12.214;2024-02-28T09:07:29;63.47;;;31.53;;
19800;SDS011;10060;48.274;12.214;2024-02-28T09:10:32;54.47;;;29.80;;
19800;SDS011;10060;48.274;12.214;2024-02-28T09:13:35;59.20;;;30.13;;
19800;SDS011;10060;48.274;12.214;2024-02-28T09:16:37;63.47;;;31.07;;
19800;SDS011;10060;48.274;12.214;2024-02-28T09:19:39;60.53;;;29.10;;
19800;SDS011;10060;48.274;12.214;2024-02-28T09:22:42;63.93;;;31.70;;
19800;SDS011;10060;48.274;12.214;2024-02-28T09:25:44;61.30;;;30.90;;
19800;SDS011;10060;48.274;12.214;2024-02-28T09:28:47;61.73;;;31.10;;
19800;SDS011;10060;48.274;12.214;2024-02-28T09:31:49;66.77;;;30.33;;
19800;SDS011;10060;48.274;12.214;2024-02-28T09:34:51;58.47;;;30.00;;
19800;SDS011;10060;48.274;12.214;2024-02-28T09:37:53;60.53;;;29.57;;
19800;SDS011;10060;48.274;12.214;2024-02-28T09:40:56;65.30;;;30.70;;
19800;SDS011;10060;48.274;12.214;2024-02-28T09:43:59;56.57;;;28.33;;
19800;SDS011;10060;48.274;12.214;2024-02-28T09:47:02;64.60;;;30.47;;
19800;SDS011;10060;48.274;12.214;2024-02-28T09:50:05;61.63;;;29.57;;
19800;SDS011;10060;48.274;12.214;2024-02-28T09:53:09;60.43;;;30.07;;
19800;SDS011;10060;48.274;12.214;2024-02-28T09:56:11;56.67;;;29.33;;
19800;SDS011;10060;48.274;12.214;2024-02-28T09:59:15;57.10;;;30.53;;
19800;SDS011;10060;48.274;12.214;2024-02-28T10:02:17;57.50;;;29.20;;
19800;SDS011;10060;48.274;12.214;2024-02-28T10:05:21;56.47;;;29.63;;
19800;SDS011;10060;48.274;12.214;2024-02-28T10:11:30;59.50;;;29.30;;
19800;SDS011;10060;48.274;12.214;2024-02-28T10:14:34;58.80;;;30.00;;
19800;SDS011;10060;48.274;12.214;2024-02-28T10:17:36;55.20;;;28.33;;
19800;SDS011;10060;48.274;12.214;2024-02-28T10:20:39;55.57;;;29.17;;
19800;SDS011;10060;48.274;12.214;2024-02-28T10:23:41;61.20;;;30.93;;
19800;SDS011;10060;48.274;12.214;2024-02-28T10:26:43;59.90;;;30.40;;
19800;SDS011;10060;48.274;12.214;2024-02-28T10:29:47;66.17;;;30.73;;
19800;SDS011;10060;48.274;12.214;2024-02-28T10:32:49;59.40;;;30.53;;
19800;SDS011;10060;48.274;12.214;2024-02-28T10:35:51;54.43;;;28.90;;
19800;SDS011;10060;48.274;12.214;2024-02-28T10:38:53;57.47;;;30.20;;
19800;SDS011;10060;48.274;12.214;2024-02-28T10:41:57;59.33;;;28.80;;
19800;SDS011;10060;48.274;12.214;2024-02-28T10:45:03;59.93;;;29.90;;
19800;SDS011;10060;48.274;12.214;2024-02-28T10:48:07;55.30;;;29.17;;
19800;SDS011;10060;48.274;12.214;2024-02-28T10:51:09;58.07;;;30.10;;
19800;SDS011;10060;48.274;12.214;2024-02-28T10:54:15;60.50;;;30.57;;
19800;SDS011;10060;48.274;12.214;2024-02-28T10:57:18;61.40;;;30.23;;
19800;SDS011;10060;48.274;12.214;2024-02-28T11:00:22;58.87;;;29.67;;
19800;SDS011;10060;48.274;12.214;2024-02-28T11:03:24;59.90;;;29.53;;
19800;SDS011;10060;48.274;12.214;2024-02-28T11:06:26;63.13;;;31.83;;
19800;SDS011;10060;48.274;12.214;2024-02-28T11:09:28;64.30;;;29.73;;
19800;SDS011;10060;48.274;12.214;2024-02-28T11:12:32;57.87;;;29.47;;
19800;SDS011;10060;48.274;12.214;2024-02-28T11:15:37;60.80;;;31.17;;
19800;SDS011;10060;48.274;12.214;2024-02-28T11:18:47;58.87;;;29.53;;
19800;SDS011;10060;48.274;12.214;2024-02-28T11:21:53;57.13;;;30.10;;
19800;SDS011;10060;48.274;12.214;2024-02-28T11:24:55;54.63;;;28.53;;
19800;SDS011;10060;48.274;12.214;2024-02-28T11:27:57;57.43;;;29.53;;
19800;SDS011;10060;48.274;12.214;2024-02-28T11:31:01;60.47;;;29.07;;
19800;SDS011;10060;48.274;12.214;2024-02-28T11:34:04;55.13;;;28.73;;
19800;SDS011;10060;48.274;12.214;2024-02-28T11:37:06;56.70;;;28.67;;
19800;SDS011;10060;48.274;12.214;2024-02-28T11:40:09;61.30;;;29.97;;
19800;SDS011;10060;48.274;12.214;2024-02-28T11:43:12;59.73;;;29.83;;
19800;SDS011;10060;48.274;12.214;2024-02-28T11:46:16;62.43;;;30.53;;
19800;SDS011;10060;48.274;12.214;2024-02-28T11:49:18;57.57;;;29.23;;
19800;SDS011;10060;48.274;12.214;2024-02-28T11:52:20;53.40;;;28.23;;
19800;SDS011;10060;48.274;12.214;2024-02-28T11:55:24;58.53;;;30.03;;
19800;SDS011;10060;48.274;12.214;2024-02-28T11:58:26;56.00;;;27.93;;
19800;SDS011;10060;48.274;12.214;2024-02-28T12:01:34;53.90;;;28.77;;
19800;SDS011;10060;48.274;12.214;2024-02-28T12:04:37;55.23;;;27.97;;
19800;SDS011;10060;48.274;12.214;2024-02-28T12:07:39;58.50;;;29.47;;
19800;SDS011;10060;48.274;12.214;2024-02-28T12:10:41;55.07;;;29.33;;
19800;SDS011;10060;48.274;12.214;2024-02-28T12:13:43;60.07;;;30.40;;
19800;SDS011;10060;48.274;12.214;2024-02-28T12:16:47;58.33;;;29.57;;
19800;SDS011;10060;48.274;12.214;2024-02-28T12:19:49;52.77;;;27.87;;
19800;SDS011;10060;48.274;12.214;2024-02-28T12:22:52;51.63;;;27.40;;
19800;SDS011;10060;48.274;12.214;2024-02-28T12:25:54;53.33;;;27.93;;
19800;SDS011;10060;48.274;12.214;2024-02-28T12:28:56;50.87;;;28.13;;
19800;SDS011;10060;48.274;12.214;2024-02-28T12:31:59;54.60;;;27.70;;
19800;SDS011;10060;48.274;12.214;2024-02-28T12:35:01;51.17;;;26.10;;
19800;SDS011;10060;48.274;12.214;2024-02-28T12:38:04;56.90;;;27.90;;
19800;SDS011;10060;48.274;12.214;2024-02-28T12:41:06;53.80;;;27.67;;
19800;SDS011;10060;48.274;12.214;2024-02-28T12:44:08;50.10;;;28.10;;
19800;SDS011;10060;48.274;12.214;2024-02-28T12:47:12;51.83;;;27.03;;
19800;SDS011;10060;48.274;12.214;2024-02-28T12:50:14;47.70;;;25.00;;
19800;SDS011;10060;48.274;12.214;2024-02-28T12:53:16;48.90;;;26.20;;
19800;SDS011;10060;48.274;12.214;2024-02-28T12:56:18;48.97;;;25.97;;
19800;SDS011;10060;48.274;12.214;2024-02-28T12:59:20;45.70;;;24.00;;
19800;SDS011;10060;48.274;12.214;2024-02-28T13:02:24;43.03;;;23.03;;
19800;SDS011;10060;48.274;12.214;2024-02-28T13:05:26;45.13;;;22.93;;
19800;SDS011;10060;48.274;12.214;2024-02-28T13:08:28;45.47;;;23.47;;
19800;SDS011;10060;48.274;12.214;2024-02-28T13:11:30;44.03;;;24.10;;
19800;SDS011;10060;48.274;12.214;2024-02-28T13:14:32;42.73;;;23.10;;
19800;SDS011;10060;48.274;12.214;2024-02-28T13:17:36;40.90;;;21.37;;
19800;SDS011;10060;48.274;12.214;2024-02-28T13:20:38;42.87;;;21.90;;
19800;SDS011;10060;48.274;12.214;2024-02-28T13:23:40;44.90;;;23.30;;
19800;SDS011;10060;48.274;12.214;2024-02-28T13:26:43;45.60;;;23.47;;
19800;SDS011;10060;48.274;12.214;2024-02-28T13:29:45;42.77;;;22.70;;
19800;SDS011;10060;48.274;12.214;2024-02-28T13:32:48;43.53;;;22.67;;
19800;SDS011;10060;48.274;12.214;2024-02-28T13:35:51;42.10;;;24.03;;
19800;SDS011;10060;48.274;12.214;2024-02-28T13:38:53;44.50;;;23.07;;
19800;SDS011;10060;48.274;12.214;2024-02-28T13:41:55;47.83;;;24.77;;
19800;SDS011;10060;48.274;12.214;2024-02-28T13:44:58;43.63;;;23.43;;
19800;SDS011;10060;48.274;12.214;2024-02-28T13:48:01;43.90;;;23.47;;
19800;SDS011;10060;48.274;12.214;2024-02-28T13:51:04;46.93;;;24.87;;
19800;SDS011;10060;48.274;12.214;2024-02-28T13:54:06;44.53;;;22.80;;
19800;SDS011;10060;48.274;12.214;2024-02-28T13:57:08;41.17;;;21.53;;
19800;SDS011;10060;48.274;12.214;2024-02-28T14:00:11;38.20;;;21.33;;
19800;SDS011;10060;48.274;12.214;2024-02-28T14:03:15;37.30;;;21.47;;
19800;SDS011;10060;48.274;12.214;2024-02-28T14:06:17;41.00;;;21.97;;
19800;SDS011;10060;48.274;12.214;2024-02-28T14:09:19;40.97;;;21.80;;
19800;SDS011;10060;48.274;12.214;2024-02-28T14:12:21;37.23;;;20.77;;
19800;SDS011;10060;48.274;12.214;2024-02-28T14:15:23;38.73;;;20.53;;
19800;SDS011;10060;48.274;12.214;2024-02-28T14:18:27;36.60;;;19.93;;
19800;SDS011;10060;48.274;12.214;2024-02-28T14:21:29;38.30;;;21.87;;
19800;SDS011;10060;48.274;12.214;2024-02-28T14:24:31;39.73;;;21.53;;
19800;SDS011;10060;48.274;12.214;2024-02-28T14:27:33;40.37;;;21.33;;
19800;SDS011;10060;48.274;12.214;2024-02-28T14:30:35;37.27;;;20.53;;
19800;SDS011;10060;48.274;12.214;2024-02-28T14:33:39;38.00;;;21.37;;
19800;SDS011;10060;48.274;12.214;2024-02-28T14:36:41;39.90;;;21.67;;
19800;SDS011;10060;48.274;12.214;2024-02-28T14:39:43;41.70;;;24.13;;
19800;SDS011;10060;48.274;12.214;2024-02-28T14:42:46;39.33;;;22.17;;
19800;SDS011;10060;48.274;12.214;2024-02-28T14:45:48;43.40;;;22.87;;
19800;SDS011;10060;48.274;12.214;2024-02-28T14:48:51;43.17;;;22.63;;
19800;SDS011;10060;48.274;12.214;2024-02-28T14:51:53;38.60;;;21.87;;
19800;SDS011;10060;48.274;12.214;2024-02-28T14:54:55;44.00;;;23.87;;
19800;SDS011;10060;48.274;12.214;2024-02-28T14:57:57;43.50;;;22.80;;
19800;SDS011;10060;48.274;12.214;2024-02-28T15:01:00;38.43;;;21.20;;
19800;SDS011;10060;48.274;12.214;2024-02-28T15:04:03;38.40;;;20.93;;
19800;SDS011;10060;48.274;12.214;2024-02-28T15:07:06;41.83;;;21.47;;
19800;SDS011;10060;48.274;12.214;2024-02-28T15:10:08;45.37;;;22.67;;
19800;SDS011;10060;48.274;12.214;2024-02-28T15:13:10;47.60;;;24.47;;
19800;SDS011;10060;48.274;12.214;2024-02-28T15:16:12;46.03;;;24.57;;
19800;SDS011;10060;48.274;12.214;2024-02-28T15:19:17;44.73;;;21.67;;
19800;SDS011;10060;48.274;12.214;2024-02-28T15:22:19;46.87;;;22.73;;
19800;SDS011;10060;48.274;12.214;2024-02-28T15:25:21;49.50;;;25.53;;
19800;SDS011;10060;48.274;12.214;2024-02-28T15:28:23;40.77;;;21.83;;
19800;SDS011;10060;48.274;12.214;2024-02-28T15:31:26;40.37;;;22.13;;
19800;SDS011;10060;48.274;12.214;2024-02-28T15:34:30;38.27;;;21.43;;
19800;SDS011;10060;48.274;12.214;2024-02-28T15:37:32;40.17;;;19.93;;
19800;SDS011;10060;48.274;12.214;2024-02-28T15:40:35;42.77;;;21.97;;
19800;SDS011;10060;48.274;12.214;2024-02-28T15:43:37;36.03;;;19.40;;
19800;SDS011;10060;48.274;12.214;2024-02-28T15:46:39;34.90;;;19.20;;
19800;SDS011;10060;48.274;12.214;2024-02-28T15:49:43;38.13;;;21.07;;
19800;SDS011;10060;48.274;12.214;2024-02-28T15:52:45;35.43;;;19.17;;
19800;SDS011;10060;48.274;12.214;2024-02-28T15:55:47;38.53;;;20.07;;
19800;SDS011;10060;48.274;12.214;2024-02-28T15:58:49;41.03;;;20.60;;
19800;SDS011;10060;48.274;12.214;2024-02-28T16:01:52;37.13;;;20.83;;
19800;SDS011;10060;48.274;12.214;2024-02-28T16:04:55;38.77;;;20.73;;
19800;SDS011;10060;48.274;12.214;2024-02-28T16:07:57;39.90;;;22.60;;
19800;SDS011;10060;48.274;12.214;2024-02-28T16:10:59;38.30;;;21.17;;
19800;SDS011;10060;48.274;12.214;2024-02-28T16:14:01;42.23;;;22.30;;
19800;SDS011;10060;48.274;12.214;2024-02-28T16:17:04;39.77;;;21.57;;
19800;SDS011;10060;48.274;12.214;2024-02-28T16:20:08;42.60;;;22.43;;
19800;SDS011;10060;48.274;12.214;2024-02-28T16:23:13;42.20;;;23.07;;
19800;SDS011;10060;48.274;12.214;2024-02-28T16:26:16;38.73;;;21.80;;
19800;SDS011;10060;48.274;12.214;2024-02-28T16:29:19;37.57;;;21.57;;
19800;SDS011;10060;48.274;12.214;2024-02-28T16:32:22;42.57;;;23.13;;
19800;SDS011;10060;48.274;12.214;2024-02-28T16:35:25;43.60;;;22.13;;
19800;SDS011;10060;48.274;12.214;2024-02-28T16:38:27;40.80;;;22.63;;
19800;SDS011;10060;48.274;12.214;2024-02-28T16:41:29;40.57;;;23.33;;
19800;SDS011;10060;48.274;12.214;2024-02-28T16:44:31;41.33;;;22.10;;
19800;SDS011;10060;48.274;12.214;2024-02-28T16:47:33;40.57;;;22.87;;
19800;SDS011;10060;48.274;12.214;2024-02-28T16:50:37;40.30;;;22.63;;
19800;SDS011;10060;48.274;12.214;2024-02-28T16:53:39;39.03;;;21.73;;
19800;SDS011;10060;48.274;12.214;2024-02-28T16:56:41;41.43;;;22.57;;
19800;SDS011;10060;48.274;12.214;2024-02-28T16:59:45;38.70;;;21.10;;
19800;SDS011;10060;48.274;12.214;2024-02-28T17:02:47;41.60;;;22.17;;
19800;SDS011;10060;48.274;12.214;2024-02-28T17:05:50;38.67;;;21.53;;
19800;SDS011;10060;48.274;12.214;2024-02-28T17:08:53;39.60;;;21.17;;
19800;SDS011;10060;48.274;12.214;2024-02-28T17:11:55;38.73;;;22.50;;
19800;SDS011;10060;48.274;12.214;2024-02-28T17:14:57;40.93;;;23.40;;
19800;SDS011;10060;48.274;12.214;2024-02-28T17:17:59;42.23;;;23.47;;
19800;SDS011;10060;48.274;12.214;2024-02-28T17:21:03;41.90;;;21.20;;
19800;SDS011;10060;48.274;12.214;2024-02-28T17:24:06;42.13;;;20.77;;
19800;SDS011;10060;48.274;12.214;2024-02-28T17:27:08;42.00;;;21.93;;
19800;SDS011;10060;48.274;12.214;2024-02-28T17:30:10;38.13;;;20.57;;
19800;SDS011;10060;48.274;12.214;2024-02-28T17:33:12;39.77;;;22.43;;
19800;SDS011;10060;48.274;12.214;2024-02-28T17:36:16;41.03;;;22.23;;
19800;SDS011;10060;48.274;12.214;2024-02-28T17:39:18;38.67;;;21.07;;